Shiro, Texas
Current Conditions -  °F | °C
As of 12:53 PM on Monday 20 Oct 2014 (Local Time) from KUTS Reporting Station
Clear Clear  
Wind Chill: 25°   Ceiling: Unl
Heat Index: 26°   Visibility: 10mi
Dew Point: 15°   Wind: 3mph
Humidity: 54%   Direction: NA
Pressure: 30.07"   Gusts: NA
Location:  30.61°N, 95.89°W
Report Text: KUTS 201753Z AUTO VRB03KT 10SM CLR 25/15 A3007 RMK AO2 SLP179 T02500150 10250 20122 58009
Loading
Personal Weather Stations






























Interactive Weather Map
Tropical Storm Tracking
New forecast layout! Learn more

10-Day Weather Forecast

Advertisements
Track Severe Weather on mobile